Terminal Aerodrome Forecast
Issued by NWS Cleveland, OH

Home | Current Version | Previous Version | Graphics & Text | Print | Product List | Glossary On
Versions: 1 2 3 4 5 6 7 8 9 10 11 12 13 14
539
FTUS41 KCLE 190520
TAFTOL
TAF
KTOL 190520Z 1906/2006 00000KT P6SM SKC
     FM191600 27007KT P6SM SCT040
     FM192100 28006KT P6SM VCTS SCT040CB BKN120
     FM200500 VRB03KT 4SM BR SCT120=

USA.gov is the U.S. government's official web portal to all federal, state and local government web resources and services.